Time;durP1;ratioP1;P1;durP2;ratioP2;P2;SDS_P1;SDS_P2;PMS_P1;PMS_P2;Temp;Humidity;BMP_temperature;BMP_pressure;BME280_temperature;BME280_humidity;BME280_pressure;Samples;Min_cycle;Max_cycle;Signal;HPM_P1;HPM_P2
2022/01/25 00:08:41;;;;;;;37.23;25.90;;;;;;;5.04;95.24;103252.53;5053798;28;20840;-46
2022/01/25 00:25:09;;;;;;;33.20;25.17;;;;;;;5.05;94.66;103241.00;5054026;28;20442;-45
2022/01/25 00:27:42;;;;;;;36.00;24.10;;;;;;;5.08;95.14;103245.25;5053957;28;20437;-48
2022/01/25 00:30:24;;;;;;;33.80;23.57;;;;;;;5.07;94.60;103244.41;5052365;28;20463;-45
2022/01/25 00:32:52;;;;;;;29.70;23.60;;;;;;;5.07;94.53;103244.41;5053636;28;20838;-43
2022/01/25 00:35:19;;;;;;;38.07;26.30;;;;;;;5.07;94.71;103238.25;5054091;28;20427;-46
2022/01/25 00:37:49;;;;;;;36.43;24.97;;;;;;;5.05;94.84;103229.59;5053366;28;20436;-42
2022/01/25 00:40:17;;;;;;;36.50;25.37;;;;;;;5.03;94.76;103233.16;5053779;28;20427;-44
2022/01/25 00:42:44;;;;;;;37.50;24.67;;;;;;;5.03;94.81;103227.03;5053701;28;20451;-44
2022/01/25 00:45:14;;;;;;;37.93;24.93;;;;;;;5.01;94.53;103240.38;5053607;28;20432;-43
2022/01/25 00:47:48;;;;;;;36.20;25.17;;;;;;;4.98;94.19;103235.28;5053299;28;20914;-44
2022/01/25 00:50:16;;;;;;;35.40;23.97;;;;;;;5.02;93.73;103228.81;5053454;28;20448;-43
2022/01/25 00:55:33;;;;;;;29.20;23.07;;;;;;;5.02;94.22;103226.16;5053483;28;20432;-48
2022/01/25 00:58:02;;;;;;;34.60;23.20;;;;;;;5.05;93.88;103224.28;5052897;28;20431;-42
2022/01/25 01:00:29;;;;;;;31.83;23.50;;;;;;;5.05;94.33;103221.66;5053558;28;20431;-47
2022/01/25 01:02:57;;;;;;;42.63;24.50;;;;;;;5.04;94.59;103223.44;5053136;28;20463;-45
2022/01/25 01:05:25;;;;;;;31.63;22.93;;;;;;;5.03;93.87;103229.66;5054043;28;20466;-44
2022/01/25 01:08:13;;;;;;;31.97;23.60;;;;;;;5.07;94.14;103227.69;5052842;28;20459;-45
2022/01/25 01:10:43;;;;;;;34.00;22.77;;;;;;;5.07;94.25;103231.19;5053117;28;20446;-47
2022/01/25 01:16:33;;;;;;;32.90;23.97;;;;;;;5.07;94.36;103228.53;5011076;28;20433;-45
2022/01/25 01:30:08;;;;;;;34.30;23.60;;;;;;;5.07;94.04;103239.13;5052379;28;20459;-48
2022/01/25 01:33:20;;;;;;;35.33;25.47;;;;;;;5.10;93.85;103235.41;5052662;28;20462;-47
2022/01/25 01:35:51;;;;;;;37.83;25.00;;;;;;;5.10;93.66;103243.34;5052622;28;20804;-45
2022/01/25 01:38:42;;;;;;;26.87;21.07;;;;;;;5.10;93.85;103235.41;5052290;28;20455;-45
2022/01/25 01:41:28;;;;;;;36.43;23.70;;;;;;;5.09;94.07;103231.91;5052484;28;20459;-48
2022/01/25 01:43:59;;;;;;;36.77;23.60;;;;;;;5.08;93.71;103230.22;5044151;28;20812;-47
2022/01/25 01:46:35;;;;;;;42.90;23.90;;;;;;;5.07;93.75;103233.81;5052680;28;20474;-46
2022/01/25 01:49:06;;;;;;;35.87;24.23;;;;;;;5.09;93.48;103233.72;5052249;28;20455;-45
2022/01/25 01:51:38;;;;;;;33.50;23.40;;;;;;;5.08;93.88;103224.91;5052403;28;20448;-44
2022/01/25 01:54:07;;;;;;;36.10;24.63;;;;;;;5.06;93.82;103232.13;5052302;28;20472;-45
2022/01/25 01:56:36;;;;;;;33.67;23.00;;;;;;;5.08;93.99;103227.56;5052783;28;20449;-46
2022/01/25 01:59:08;;;;;;;37.87;25.60;;;;;;;5.10;93.83;103230.97;5051940;28;20471;-49
2022/01/25 02:01:37;;;;;;;36.50;24.90;;;;;;;5.09;93.71;103228.41;5052390;28;20463;-44
2022/01/25 02:04:08;;;;;;;40.73;23.93;;;;;;;5.09;94.06;103220.47;5052302;28;20428;-44
2022/01/25 02:06:36;;;;;;;34.70;23.30;;;;;;;5.08;94.09;103222.28;5052094;28;20427;-45
2022/01/25 02:09:04;;;;;;;34.50;22.30;;;;;;;5.09;93.57;103221.34;5051763;28;20490;-45
2022/01/25 02:11:32;;;;;;;40.00;23.60;;;;;;;5.07;93.92;103212.66;5052255;28;20925;-47
2022/01/25 02:14:05;;;;;;;29.10;22.20;;;;;;;5.09;93.36;103223.97;5052243;28;20482;-47
2022/01/25 02:16:43;;;;;;;34.23;24.50;;;;;;;5.11;92.95;103226.53;5052156;28;20441;-47
2022/01/25 02:24:57;;;;;;;32.67;23.00;;;;;;;5.13;93.14;103228.13;5009983;28;20430;-43
2022/01/25 02:27:25;;;;;;;35.30;22.80;;;;;;;5.13;93.52;103208.75;5041855;28;20450;-45
2022/01/25 02:29:53;;;;;;;36.23;25.10;;;;;;;5.15;93.07;103217.44;5051361;28;20468;-46
2022/01/25 02:32:22;;;;;;;30.73;24.20;;;;;;;5.14;93.36;103215.75;5052170;28;20452;-47
2022/01/25 02:34:49;;;;;;;33.77;24.30;;;;;;;5.13;92.96;103217.56;5051881;28;20505;-46
2022/01/25 02:37:19;;;;;;;32.30;24.10;;;;;;;5.18;92.89;103217.22;5051595;28;20438;-48
2022/01/25 02:39:47;;;;;;;40.43;24.13;;;;;;;5.20;92.79;103217.97;5051462;28;20823;-48
2022/01/25 02:42:16;;;;;;;32.60;24.47;;;;;;;5.20;93.08;103216.19;5051534;28;20451;-44
2022/01/25 02:44:44;;;;;;;30.93;23.10;;;;;;;5.21;93.44;103212.59;5051615;28;20445;-45
2022/01/25 02:49:59;;;;;;;31.23;22.47;;;;;;;5.25;93.06;103216.75;5051196;28;20459;-45
2022/01/25 02:52:28;;;;;;;31.33;22.23;;;;;;;5.29;92.93;103217.34;5051447;28;20964;-48
2022/01/25 02:54:56;;;;;;;35.23;25.17;;;;;;;5.28;93.17;103211.25;5055870;28;20867;-47
2022/01/25 02:57:24;;;;;;;27.70;20.80;;;;;;;5.31;93.78;103207.53;5055468;28;20438;-45
2022/01/25 02:59:52;;;;;;;24.70;21.40;;;;;;;5.31;93.61;103208.41;5055315;28;20475;-45
2022/01/25 03:02:19;;;;;;;35.43;23.43;;;;;;;5.31;94.01;103207.53;5055429;28;20459;-47
2022/01/25 03:04:47;;;;;;;38.23;21.63;;;;;;;5.31;94.01;103213.69;5055612;28;20431;-49
2022/01/25 03:07:15;;;;;;;33.43;23.03;;;;;;;5.32;93.83;103209.22;5055223;28;20431;-46
2022/01/25 03:09:44;;;;;;;31.17;21.63;;;;;;;5.31;94.08;103212.84;5055036;28;20463;-46
2022/01/25 03:12:17;;;;;;;26.53;21.30;;;;;;;5.34;93.57;103209.97;5055464;28;20451;-47
2022/01/25 03:14:59;;;;;;;29.73;22.73;;;;;;;5.34;93.70;103204.69;5055448;28;20477;-45
2022/01/25 03:17:30;;;;;;;31.53;22.47;;;;;;;5.35;93.61;103199.28;5055020;28;20435;-46
2022/01/25 03:20:07;;;;;;;29.20;22.30;;;;;;;5.37;93.58;103200.03;5054813;28;20469;-47
2022/01/25 03:22:56;;;;;;;31.43;21.60;;;;;;;5.39;93.70;103200.78;5055270;28;20968;-44
2022/01/25 03:25:27;;;;;;;32.93;22.60;;;;;;;5.40;93.89;103186.63;5055320;28;20423;-45
2022/01/25 03:27:56;;;;;;;35.63;23.97;;;;;;;5.40;93.36;103177.81;5054295;28;20432;-45
2022/01/25 03:30:24;;;;;;;33.03;22.13;;;;;;;5.39;93.82;103171.69;5055449;28;20443;-47
2022/01/25 03:32:53;;;;;;;32.87;21.97;;;;;;;5.40;94.00;103170.72;5054907;28;20988;-48
2022/01/25 03:35:21;;;;;;;28.10;22.00;;;;;;;5.41;93.85;103174.19;5055028;28;20481;-46
2022/01/25 03:37:48;;;;;;;33.63;24.30;;;;;;;5.40;93.43;103169.88;5054289;28;20423;-47
2022/01/25 03:40:16;;;;;;;36.13;23.13;;;;;;;5.37;93.24;103173.59;5055184;28;20785;-48
2022/01/25 03:42:45;;;;;;;34.27;24.60;;;;;;;5.39;93.06;103171.69;5055054;28;20465;-46
2022/01/25 03:45:19;;;;;;;27.00;21.77;;;;;;;5.39;92.97;103174.31;5047084;28;20809;-45
2022/01/25 03:48:00;;;;;;;33.50;22.20;;;;;;;5.41;92.91;103176.84;5054032;28;20419;-49
2022/01/25 03:50:27;;;;;;;25.70;20.90;;;;;;;5.43;93.27;103172.31;5054860;28;20423;-47
2022/01/25 03:52:54;;;;;;;34.30;21.43;;;;;;;5.46;93.54;103174.75;5054632;28;20450;-48
2022/01/25 03:55:22;;;;;;;34.73;21.47;;;;;;;5.47;92.92;103174.63;5054878;28;20475;-46
2022/01/25 03:57:51;;;;;;;24.57;19.60;;;;;;;5.48;93.61;103165.75;5054202;28;20439;-46
2022/01/25 04:00:19;;;;;;;28.70;23.87;;;;;;;5.48;93.19;103164.91;5054876;28;20428;-50
2022/01/25 04:02:52;;;;;;;31.80;20.50;;;;;;;5.46;93.23;103153.59;5054551;28;20836;-49
2022/01/25 04:05:24;;;;;;;31.50;21.97;;;;;;;5.44;93.11;103166.06;5054437;28;20423;-45
2022/01/25 04:07:52;;;;;;;32.90;22.10;;;;;;;5.47;93.35;103163.19;5054026;28;20437;-47
2022/01/25 04:10:25;;;;;;;24.63;20.00;;;;;;;5.46;93.68;103165.03;5054744;28;20432;-44
2022/01/25 04:12:54;;;;;;;28.10;22.27;;;;;;;5.46;93.06;103172.13;5054624;28;20475;-50
2022/01/25 04:15:22;;;;;;;32.17;19.67;;;;;;;5.46;92.81;103178.25;5054429;28;20478;-46
2022/01/25 04:17:57;;;;;;;27.20;19.10;;;;;;;5.47;92.99;103169.34;5053946;28;21127;-45
2022/01/25 04:20:29;;;;;;;28.33;19.50;;;;;;;5.45;93.18;103165.97;5054814;28;20454;-44
2022/01/25 04:25:42;;;;;;;33.87;21.40;;;;;;;5.46;92.70;103175.63;5054259;28;20428;-45
2022/01/25 04:28:11;;;;;;;24.50;19.37;;;;;;;5.48;92.26;103167.56;5053720;28;20956;-47
2022/01/25 04:30:38;;;;;;;23.83;17.80;;;;;;;5.50;92.58;103176.22;5054058;28;20443;-45
2022/01/25 04:33:17;;;;;;;28.10;18.80;;;;;;;5.49;92.21;103177.19;5054065;28;20455;-45
2022/01/25 04:35:57;;;;;;;34.63;19.53;;;;;;;5.51;92.46;103183.22;5053891;28;20997;-47
2022/01/25 04:49:30;;;;;;;25.23;17.90;;;;;;;5.54;92.38;103146.81;5053346;28;20456;-49
2022/01/25 04:52:04;;;;;;;23.17;19.13;;;;;;;5.56;92.45;103151.97;5053832;28;20444;-45
2022/01/25 04:54:45;;;;;;;23.83;17.57;;;;;;;5.57;92.91;103154.53;5053706;28;20980;-47
2022/01/25 04:57:25;;;;;;;23.87;17.63;;;;;;;5.56;92.99;103157.28;5053673;28;20434;-45
2022/01/25 05:00:01;;;;;;;21.47;16.60;;;;;;;5.59;92.87;103152.63;5053457;28;20463;-47
2022/01/25 05:02:32;;;;;;;24.30;18.20;;;;;;;5.57;92.45;103146.59;5053274;28;20463;-47
2022/01/25 05:05:05;;;;;;;21.03;15.97;;;;;;;5.59;93.20;103154.41;5053594;28;20440;-48
2022/01/25 05:07:40;;;;;;;20.90;17.00;;;;;;;5.57;93.44;103143.97;5053244;28;20431;-47
2022/01/25 05:10:09;;;;;;;17.83;14.63;;;;;;;5.57;93.07;103145.75;5052773;28;20469;-46
2022/01/25 05:12:42;;;;;;;20.93;16.40;;;;;;;5.57;93.13;103146.59;5053356;28;20458;-49
2022/01/25 05:16:00;;;;;;;20.27;15.53;;;;;;;5.55;93.56;103152.97;5053104;28;20471;-46
2022/01/25 05:18:38;;;;;;;21.57;15.70;;;;;;;5.56;93.41;103151.97;5052575;28;21126;-46
2022/01/25 05:23:50;;;;;;;17.03;13.53;;;;;;;5.56;93.67;103151.97;5053312;28;20435;-46
2022/01/25 05:26:18;;;;;;;21.33;13.43;;;;;;;5.57;94.03;103154.53;5053062;28;20807;-45
2022/01/25 05:28:45;;;;;;;19.60;14.17;;;;;;;5.56;94.18;103159.94;5052420;28;20479;-49
2022/01/25 05:31:14;;;;;;;15.73;13.30;;;;;;;5.54;94.19;103156.56;5052932;28;20442;-45
2022/01/25 05:33:42;;;;;;;14.60;13.10;;;;;;;5.56;94.47;103154.63;5053112;28;20435;-45
2022/01/25 05:36:10;;;;;;;13.00;11.77;;;;;;;5.56;94.56;103154.63;5053162;28;20474;-50
2022/01/25 05:38:37;;;;;;;15.93;12.73;;;;;;;5.59;94.34;103151.78;5052163;28;20466;-46
2022/01/25 05:41:05;;;;;;;15.73;12.97;;;;;;;5.59;94.32;103152.63;5052624;28;20439;-47
2022/01/25 05:44:09;;;;;;;17.10;12.87;;;;;;;5.57;94.42;103159.84;5052846;28;20451;-48
2022/01/25 05:46:44;;;;;;;14.43;12.97;;;;;;;5.54;94.29;103157.41;5047959;28;20450;-46
2022/01/25 05:49:12;;;;;;;14.23;12.83;;;;;;;5.57;94.17;103153.69;5052185;28;20459;-44
2022/01/25 05:51:40;;;;;;;16.73;13.83;;;;;;;5.54;93.76;103148.59;5052316;28;20447;-46
2022/01/25 05:54:08;;;;;;;14.60;13.10;;;;;;;5.56;93.82;103151.97;5052764;28;20436;-46
2022/01/25 05:56:35;;;;;;;13.80;12.40;;;;;;;5.57;92.98;103145.75;5052754;28;20483;-47
2022/01/25 05:59:03;;;;;;;16.33;13.63;;;;;;;5.61;93.23;103147.25;5051620;28;20474;-45
2022/01/25 06:01:31;;;;;;;15.37;13.47;;;;;;;5.62;92.79;103154.22;5052254;28;20443;-47
2022/01/25 06:04:01;;;;;;;17.83;14.07;;;;;;;5.61;92.41;103152.53;5052452;28;20458;-48
2022/01/25 06:06:29;;;;;;;17.33;15.10;;;;;;;5.64;93.11;103154.13;5052493;28;20434;-50
2022/01/25 06:08:59;;;;;;;15.30;13.70;;;;;;;5.64;92.73;103159.41;5051493;28;20463;-51
2022/01/25 06:11:27;;;;;;;22.77;14.90;;;;;;;5.62;92.23;103148.91;5052264;28;20503;-45
2022/01/25 06:13:54;;;;;;;14.37;13.17;;;;;;;5.62;92.16;103151.56;5052336;28;20435;-47
2022/01/25 06:16:23;;;;;;;16.57;14.23;;;;;;;5.62;92.08;103150.72;5052130;28;20475;-50
2022/01/25 06:18:51;;;;;;;16.70;13.50;;;;;;;5.57;92.04;103143.97;5051350;28;20830;-44
2022/01/25 06:21:20;;;;;;;23.03;14.03;;;;;;;5.59;91.76;103146.47;5051878;28;20441;-46
2022/01/25 06:23:47;;;;;;;13.97;12.67;;;;;;;5.60;91.22;103148.19;5052242;28;20786;-49
2022/01/25 06:26:16;;;;;;;16.20;12.30;;;;;;;5.62;91.64;103153.34;5052067;28;20427;-46
2022/01/25 06:28:43;;;;;;;14.50;12.93;;;;;;;5.63;91.34;103150.63;5050461;28;20477;-47
2022/01/25 06:31:11;;;;;;;15.90;12.57;;;;;;;5.64;91.40;103149.69;5051858;28;20913;-45
2022/01/25 06:33:41;;;;;;;14.50;12.97;;;;;;;5.65;90.54;103150.50;5051805;28;20447;-47
2022/01/25 06:36:10;;;;;;;16.70;13.53;;;;;;;5.66;90.94;103146.91;5051846;28;20999;-45
2022/01/25 06:38:39;;;;;;;14.57;13.07;;;;;;;5.67;91.29;103148.63;5051626;28;20467;-48
2022/01/25 06:41:07;;;;;;;14.03;12.73;;;;;;;5.64;91.76;103149.69;5051873;28;20439;-46
2022/01/25 06:43:35;;;;;;;14.80;13.00;;;;;;;5.66;91.11;103145.13;5052194;28;20452;-45
2022/01/25 06:46:03;;;;;;;15.10;13.60;;;;;;;5.66;90.69;103147.75;5051750;28;20478;-45
2022/01/25 06:48:32;;;;;;;15.27;13.83;;;;;;;5.66;91.28;103155.72;5051204;28;20467;-47
2022/01/25 06:51:00;;;;;;;17.60;14.50;;;;;;;5.67;91.24;103156.56;5051738;28;20436;-44
2022/01/25 06:53:27;;;;;;;15.37;14.00;;;;;;;5.66;90.81;103147.75;5051553;28;20447;-49
2022/01/25 06:55:56;;;;;;;16.17;14.43;;;;;;;5.67;90.73;103153.91;5051601;28;20550;-46
2022/01/25 06:58:24;;;;;;;15.93;14.20;;;;;;;5.68;90.62;103153.78;5051111;28;20459;-50
2022/01/25 07:00:52;;;;;;;15.87;13.93;;;;;;;5.67;91.07;103149.47;5051465;28;20925;-46
2022/01/25 07:03:19;;;;;;;20.73;14.70;;;;;;;5.67;90.78;103160.06;5051598;28;20486;-51
2022/01/25 07:05:47;;;;;;;15.83;13.90;;;;;;;5.68;90.80;103161.72;5052114;28;20458;-47
2022/01/25 07:08:15;;;;;;;15.60;14.00;;;;;;;5.69;90.54;103160.78;5050871;28;20482;-45
2022/01/25 07:10:42;;;;;;;19.27;14.00;;;;;;;5.67;91.50;103160.06;5051424;28;20431;-47
2022/01/25 07:13:11;;;;;;;18.57;14.33;;;;;;;5.68;90.56;103151.16;5051515;28;20482;-47
2022/01/25 07:15:39;;;;;;;15.10;13.17;;;;;;;5.66;90.75;103157.50;5051705;28;20440;-47
2022/01/25 07:18:07;;;;;;;14.13;12.83;;;;;;;5.66;90.69;103158.34;5050867;28;20451;-48
2022/01/25 07:20:34;;;;;;;14.87;13.50;;;;;;;5.65;90.12;103159.28;5051356;28;20802;-47
2022/01/25 07:23:02;;;;;;;18.23;14.37;;;;;;;5.68;89.60;103163.53;5051160;28;20513;-49
2022/01/25 07:25:29;;;;;;;23.50;13.50;;;;;;;5.67;90.14;103162.72;5051120;28;20435;-49
2022/01/25 07:27:57;;;;;;;20.50;14.27;;;;;;;5.68;89.42;103164.38;5050749;28;20431;-43
2022/01/25 07:30:26;;;;;;;14.33;12.83;;;;;;;5.68;89.93;103160.88;5051323;28;20615;-44
2022/01/25 07:32:54;;;;;;;23.10;14.20;;;;;;;5.68;89.81;103156.44;5051171;28;20494;-45
2022/01/25 07:35:22;;;;;;;19.37;12.57;;;;;;;5.71;90.01;103161.53;5050946;28;20866;-49
2022/01/25 07:37:53;;;;;;;14.13;12.93;;;;;;;5.71;89.71;103166.81;5049566;28;20478;-47
2022/01/25 07:40:21;;;;;;;15.87;14.23;;;;;;;5.72;89.57;103157.06;5054427;28;20471;-44
2022/01/25 07:42:50;;;;;;;19.07;14.60;;;;;;;5.72;90.09;103170.31;5054315;28;20512;-44
2022/01/25 07:45:21;;;;;;;14.87;13.33;;;;;;;5.72;89.26;103163.22;5047296;28;20438;-47
2022/01/25 07:47:55;;;;;;;17.57;14.43;;;;;;;5.73;88.75;103164.06;5052408;28;20476;-50
2022/01/25 07:50:27;;;;;;;18.57;13.70;;;;;;;5.73;89.24;103172.88;5054556;28;20435;-44
2022/01/25 07:52:55;;;;;;;14.37;13.00;;;;;;;5.73;89.72;103178.16;5054787;28;20466;-45
2022/01/25 07:55:22;;;;;;;16.10;12.80;;;;;;;5.76;89.39;103177.09;5054769;28;20431;-50
2022/01/25 07:57:50;;;;;;;17.40;14.13;;;;;;;5.77;89.17;103176.97;5053923;28;20475;-45
2022/01/25 08:00:19;;;;;;;14.63;12.97;;;;;;;5.78;88.86;103176.03;5054499;28;20784;-46
2022/01/25 08:02:48;;;;;;;20.60;13.90;;;;;;;5.77;89.23;103179.63;5054300;28;20816;-43
2022/01/25 08:05:24;;;;;;;20.37;12.63;;;;;;;5.78;89.04;103172.53;5053717;28;20941;-48
2022/01/25 08:08:09;;;;;;;17.10;12.63;;;;;;;5.79;89.17;103159.22;5053910;28;20454;-46
2022/01/25 08:10:51;;;;;;;21.30;13.47;;;;;;;5.77;89.03;103166.38;5050553;28;20452;-45
2022/01/25 08:13:47;;;;;;;17.17;13.67;;;;;;;5.78;89.35;103156.66;5012224;28;20791;-47
2022/01/25 08:16:34;;;;;;;14.43;12.90;;;;;;;5.79;89.11;103159.22;5007074;28;20827;-45
2022/01/25 08:19:22;;;;;;;15.60;13.73;;;;;;;5.79;89.12;103166.31;4953277;28;20475;-45
2022/01/25 08:21:55;;;;;;;16.63;12.57;;;;;;;5.80;88.97;103160.88;4953601;29;20452;-46
2022/01/25 08:24:42;;;;;;;14.43;12.13;;;;;;;5.83;88.89;103165.97;4896748;29;20438;-46
2022/01/25 08:27:24;;;;;;;14.90;12.40;;;;;;;5.85;88.60;103168.53;4896509;29;20509;-45
2022/01/25 08:30:08;;;;;;;15.27;13.77;;;;;;;5.88;88.50;103171.00;4896093;29;20482;-46
2022/01/25 08:32:51;;;;;;;14.60;13.30;;;;;;;5.91;89.17;103166.28;4840833;29;20505;-46
2022/01/25 08:35:54;;;;;;;14.50;12.97;;;;;;;5.92;90.10;103172.44;4840659;29;20488;-47
2022/01/25 08:38:32;;;;;;;14.07;12.67;;;;;;;5.91;90.15;103174.25;4840375;29;20480;-43
2022/01/25 08:41:14;;;;;;;13.30;12.10;;;;;;;5.92;89.67;103178.59;4840250;29;20457;-47
2022/01/25 08:43:59;;;;;;;12.13;11.27;;;;;;;5.96;89.33;103172.16;4852646;29;20440;-50
2022/01/25 08:46:32;;;;;;;17.10;12.70;;;;;;;6.00;89.86;103176.25;4907096;29;20433;-49
2022/01/25 08:49:13;;;;;;;14.37;12.40;;;;;;;6.00;90.25;103168.31;4913801;29;20471;-50
2022/01/25 08:51:43;;;;;;;15.17;12.77;;;;;;;6.05;90.66;103175.94;4914197;29;20513;-44
2022/01/25 08:54:31;;;;;;;17.70;12.87;;;;;;;6.08;90.16;103181.03;4915176;29;20926;-46
2022/01/25 08:57:16;;;;;;;17.90;13.00;;;;;;;6.07;91.01;103169.56;4939674;29;20472;-46
2022/01/25 08:59:58;;;;;;;17.13;12.40;;;;;;;6.07;91.09;103169.56;4949538;28;20673;-45
2022/01/25 09:02:25;;;;;;;13.30;11.83;;;;;;;6.11;90.29;103173.72;4996809;28;20465;-47
2022/01/25 09:04:53;;;;;;;13.13;12.07;;;;;;;6.17;90.50;103174.22;5011318;28;20472;-52
2022/01/25 09:07:21;;;;;;;13.13;12.03;;;;;;;6.13;91.22;103177.09;5011195;28;20795;-46
2022/01/25 09:09:50;;;;;;;13.20;11.50;;;;;;;6.14;91.81;103180.59;5018016;28;20460;-47
2022/01/25 09:12:17;;;;;;;12.57;11.37;;;;;;;6.12;91.68;103180.69;5033408;28;20451;-45
2022/01/25 09:14:45;;;;;;;15.20;10.80;;;;;;;6.08;91.52;103176.56;5033221;28;20946;-45
2022/01/25 09:17:13;;;;;;;30.03;12.53;;;;;;;6.09;92.11;103183.53;5033023;28;20499;-47
2022/01/25 09:19:41;;;;;;;11.57;10.60;;;;;;;6.12;91.19;103185.97;5032653;28;20901;-45
2022/01/25 09:22:09;;;;;;;13.20;10.03;;;;;;;6.10;90.93;103179.09;5033182;28;20503;-45
2022/01/25 09:24:38;;;;;;;21.37;10.70;;;;;;;6.12;90.38;103172.72;5033282;28;20446;-47
2022/01/25 09:27:08;;;;;;;14.10;12.80;;;;;;;6.15;91.19;103171.69;5033202;28;20428;-46
2022/01/25 09:29:38;;;;;;;12.90;11.10;;;;;;;6.20;90.61;103171.34;5032564;28;20468;-47
2022/01/25 09:32:06;;;;;;;17.00;11.80;;;;;;;6.20;91.19;103184.59;5032839;28;20466;-46
2022/01/25 09:34:33;;;;;;;16.23;10.77;;;;;;;6.18;91.26;103178.56;5032683;28;20444;-46
2022/01/25 09:37:02;;;;;;;12.43;10.63;;;;;;;6.20;90.90;103185.47;5032835;28;20480;-48
2022/01/25 09:39:32;;;;;;;11.67;10.43;;;;;;;6.21;90.64;103179.22;5032222;28;20468;-47
2022/01/25 09:42:03;;;;;;;20.60;11.57;;;;;;;6.26;90.81;103185.03;5032726;28;20459;-49
2022/01/25 09:44:31;;;;;;;13.53;10.97;;;;;;;6.29;91.26;103178.66;5046557;28;20813;-45
2022/01/25 09:46:59;;;;;;;12.80;11.30;;;;;;;6.30;90.97;103189.13;5052206;28;20432;-45
2022/01/25 09:49:27;;;;;;;13.60;11.00;;;;;;;6.32;91.18;103183.72;5051921;28;20467;-44
2022/01/25 09:51:56;;;;;;;14.17;10.53;;;;;;;6.27;92.52;103194.69;5052739;28;20447;-45
2022/01/25 09:54:24;;;;;;;11.57;10.57;;;;;;;6.26;92.05;103189.47;5052156;28;20454;-46
2022/01/25 09:56:51;;;;;;;12.47;11.37;;;;;;;6.31;91.38;103189.97;5052233;28;20434;-46
2022/01/25 09:59:19;;;;;;;13.63;12.13;;;;;;;6.30;91.86;103193.59;5051671;28;20478;-48
2022/01/25 10:01:48;;;;;;;12.70;11.37;;;;;;;6.29;91.07;103186.59;5051883;28;20470;-48
2022/01/25 10:04:28;;;;;;;13.33;12.30;;;;;;;6.30;91.41;103186.47;5052399;28;20465;-48
2022/01/25 10:07:03;;;;;;;12.90;10.60;;;;;;;6.36;91.38;103195.81;5052298;28;20435;-44
2022/01/25 10:09:32;;;;;;;16.50;12.20;;;;;;;6.37;90.88;103192.19;5051508;28;20468;-44
2022/01/25 10:12:18;;;;;;;16.63;11.97;;;;;;;6.33;92.35;103191.56;5051926;28;20454;-44
2022/01/25 10:14:54;;;;;;;20.93;12.17;;;;;;;6.28;91.83;103195.50;5052017;28;20986;-45
2022/01/25 10:17:31;;;;;;;13.43;11.67;;;;;;;6.34;91.15;103195.91;5051892;28;20497;-44
2022/01/25 10:19:59;;;;;;;13.07;11.73;;;;;;;6.33;92.34;103186.25;5051596;28;20844;-46
2022/01/25 10:22:27;;;;;;;11.67;10.17;;;;;;;6.42;90.59;103184.78;5051880;28;20814;-45
2022/01/25 10:24:54;;;;;;;11.70;10.70;;;;;;;6.42;91.95;103192.72;5052400;28;20435;-47
2022/01/25 10:27:57;;;;;;;11.87;10.67;;;;;;;6.45;91.85;103187.22;5052033;28;20431;-45
2022/01/25 10:30:15;;;;;;;12.30;11.20;;;;;;;6.47;92.08;103188.78;5051522;28;20443;-47
2022/01/25 10:32:44;;;;;;;14.77;12.30;;;;;;;6.48;91.99;103185.16;5051682;28;20460;-47
2022/01/25 10:35:15;;;;;;;14.93;12.00;;;;;;;6.51;92.54;103184.13;5051988;28;20955;-45
2022/01/25 10:37:43;;;;;;;14.23;12.63;;;;;;;6.52;92.13;103184.00;5051795;28;20490;-45
2022/01/25 10:40:11;;;;;;;17.40;12.77;;;;;;;6.55;92.01;103180.25;5051739;28;20440;-46
2022/01/25 10:42:41;;;;;;;14.40;12.27;;;;;;;6.56;92.34;103184.63;5051728;28;20458;-49
2022/01/25 10:45:13;;;;;;;14.63;11.80;;;;;;;6.57;91.58;103178.38;5035300;28;20438;-46
2022/01/25 10:47:48;;;;;;;14.70;12.53;;;;;;;6.58;91.62;103182.69;5051247;28;20423;-46
2022/01/25 10:50:18;;;;;;;13.50;12.10;;;;;;;6.59;91.56;103174.66;5051665;28;20605;-48
2022/01/25 10:52:47;;;;;;;19.43;12.47;;;;;;;6.62;91.64;103176.22;5051471;28;20498;-44
2022/01/25 10:55:16;;;;;;;17.63;12.00;;;;;;;6.58;92.53;103172.09;5051699;28;20892;-45
2022/01/25 10:57:57;;;;;;;13.77;12.30;;;;;;;6.57;92.77;103167.78;5051432;28;20483;-46
2022/01/25 11:00:33;;;;;;;15.23;12.70;;;;;;;6.58;92.15;103172.94;5051894;28;20443;-43
2022/01/25 11:03:03;;;;;;;15.47;11.40;;;;;;;6.50;93.30;103167.38;5051465;28;20812;-44
2022/01/25 11:05:33;;;;;;;14.70;13.07;;;;;;;6.55;91.75;103170.50;5051366;28;20944;-45
2022/01/25 11:08:10;;;;;;;15.33;13.57;;;;;;;6.57;92.49;103168.59;5050676;28;20801;-49
2022/01/25 11:10:47;;;;;;;12.50;11.43;;;;;;;6.58;91.50;103164.13;5051084;28;20455;-49
2022/01/25 11:13:34;;;;;;;13.63;11.90;;;;;;;6.51;92.54;103165.56;5051453;28;20454;-47
2022/01/25 11:16:03;;;;;;;16.03;11.80;;;;;;;6.54;92.18;103160.03;5055385;28;20431;-43
2022/01/25 11:18:33;;;;;;;12.47;11.43;;;;;;;6.51;91.74;103154.97;5054847;28;20475;-45
2022/01/25 11:21:03;;;;;;;12.27;11.23;;;;;;;6.59;90.90;103158.75;5055563;28;20762;-46
2022/01/25 11:23:33;;;;;;;16.43;11.90;;;;;;;6.56;91.51;103150.16;5055426;28;20459;-44
2022/01/25 11:26:02;;;;;;;20.20;11.50;;;;;;;6.50;92.12;103146.16;5055241;28;20500;-47
2022/01/25 11:28:32;;;;;;;14.70;11.83;;;;;;;6.53;92.14;103150.38;5054778;28;20801;-47
2022/01/25 11:31:03;;;;;;;12.40;11.10;;;;;;;6.50;91.39;103155.91;5055244;28;20452;-43
2022/01/25 11:33:33;;;;;;;11.93;10.77;;;;;;;6.50;91.53;103140.00;5055687;28;20455;-52
2022/01/25 11:36:07;;;;;;;12.60;10.70;;;;;;;6.51;91.55;103147.00;5055191;28;20469;-47
2022/01/25 11:38:39;;;;;;;13.63;11.87;;;;;;;6.48;90.25;103139.28;5054326;28;20984;-44
2022/01/25 11:41:10;;;;;;;21.23;12.17;;;;;;;6.52;90.04;103132.78;5054886;28;20420;-50
2022/01/25 11:43:37;;;;;;;13.30;12.10;;;;;;;6.57;89.48;103138.59;5048331;28;20456;-45
2022/01/25 11:46:07;;;;;;;15.70;11.00;;;;;;;6.62;89.02;103132.00;5053835;28;20439;-45
2022/01/25 11:48:40;;;;;;;11.77;10.43;;;;;;;6.63;90.25;103133.69;5054359;28;20470;-47
2022/01/25 11:51:14;;;;;;;11.37;10.37;;;;;;;6.64;90.32;103126.56;5055053;28;20438;-47
2022/01/25 11:53:44;;;;;;;14.47;12.77;;;;;;;6.59;91.22;103128.72;5054755;28;20518;-44
2022/01/25 11:56:13;;;;;;;15.57;12.20;;;;;;;6.60;91.04;103127.78;5054566;28;20432;-45
2022/01/25 11:58:42;;;;;;;13.90;11.77;;;;;;;6.60;91.36;103128.59;5053892;28;20486;-47
2022/01/25 12:01:20;;;;;;;15.50;11.50;;;;;;;6.64;91.10;103131.88;5054518;28;20439;-49
2022/01/25 12:03:52;;;;;;;13.03;11.93;;;;;;;6.61;91.05;103126.78;5054626;28;20446;-50
2022/01/25 12:06:25;;;;;;;18.27;12.03;;;;;;;6.56;90.91;103127.16;5054471;28;20423;-50
2022/01/25 12:11:58;;;;;;;13.40;12.07;;;;;;;6.54;91.23;103131.69;5054039;28;20996;-44
2022/01/25 12:14:29;;;;;;;13.37;11.93;;;;;;;6.57;90.01;103125.34;5054399;28;20445;-52
2022/01/25 12:17:09;;;;;;;11.50;10.70;;;;;;;6.56;91.22;103126.31;5054171;28;20427;-44
2022/01/25 12:19:44;;;;;;;12.23;11.17;;;;;;;6.56;90.71;103128.94;5053538;28;21018;-48
2022/01/25 12:22:16;;;;;;;12.23;11.17;;;;;;;6.56;90.19;103121.00;5054081;28;20457;-47
2022/01/25 12:25:01;;;;;;;13.70;11.67;;;;;;;6.55;89.88;103120.16;5053720;28;20451;-47
2022/01/25 12:27:40;;;;;;;12.50;11.33;;;;;;;6.59;89.41;103118.13;5053193;28;20955;-46
2022/01/25 12:30:12;;;;;;;13.97;12.50;;;;;;;6.61;90.63;103113.53;5053518;28;20455;-45
2022/01/25 12:32:51;;;;;;;16.30;12.40;;;;;;;6.56;90.53;103113.03;5053999;28;20505;-48
2022/01/25 12:35:20;;;;;;;11.63;10.60;;;;;;;6.57;89.22;103107.63;5054072;28;20832;-48
2022/01/25 12:37:59;;;;;;;17.80;12.70;;;;;;;6.58;88.74;103108.47;5053175;28;20427;-47
2022/01/25 12:40:36;;;;;;;12.90;11.90;;;;;;;6.58;89.92;103111.13;5053781;28;20471;-46
2022/01/25 12:43:05;;;;;;;21.23;12.60;;;;;;;6.60;89.42;103110.03;5051593;28;20451;-43
2022/01/25 12:45:35;;;;;;;13.27;12.13;;;;;;;6.56;89.04;103097.13;5048412;28;20424;-52